sensor_id;sensor_type;location;lat;lon;timestamp;pressure;altitude;pressure_sealevel;temperature;humidity
77881;BME280;67077;50.298;18.996;2023-05-02T00:01:38;97910.28;;;10.97;52.05
77881;BME280;67077;50.298;18.996;2023-05-02T00:04:06;97909.23;;;10.98;52.18
77881;BME280;67077;50.298;18.996;2023-05-02T00:06:34;97906.30;;;11.00;52.22
77881;BME280;67077;50.298;18.996;2023-05-02T00:09:02;97901.62;;;11.01;52.26
77881;BME280;67077;50.298;18.996;2023-05-02T00:11:30;97902.45;;;11.01;52.34
77881;BME280;67077;50.298;18.996;2023-05-02T00:13:58;97897.87;;;11.02;52.59
77881;BME280;67077;50.298;18.996;2023-05-02T00:16:25;97896.00;;;11.03;52.50
77881;BME280;67077;50.298;18.996;2023-05-02T00:18:53;97897.44;;;11.05;52.78
77881;BME280;67077;50.298;18.996;2023-05-02T00:21:21;97895.30;;;11.08;52.90
77881;BME280;67077;50.298;18.996;2023-05-02T00:23:52;97895.22;;;11.12;52.85
77881;BME280;67077;50.298;18.996;2023-05-02T00:26:20;97891.27;;;11.14;52.89
77881;BME280;67077;50.298;18.996;2023-05-02T00:28:48;97888.16;;;11.16;52.82
77881;BME280;67077;50.298;18.996;2023-05-02T00:31:16;97887.94;;;11.19;52.78
77881;BME280;67077;50.298;18.996;2023-05-02T00:33:43;97888.65;;;11.18;52.71
77881;BME280;67077;50.298;18.996;2023-05-02T00:36:15;97890.89;;;11.17;52.95
77881;BME280;67077;50.298;18.996;2023-05-02T00:38:43;97894.36;;;11.16;52.93
77881;BME280;67077;50.298;18.996;2023-05-02T00:41:11;97893.81;;;11.14;53.02
77881;BME280;67077;50.298;18.996;2023-05-02T00:43:39;97893.57;;;11.11;53.23
77881;BME280;67077;50.298;18.996;2023-05-02T00:46:11;97897.05;;;11.06;53.53
77881;BME280;67077;50.298;18.996;2023-05-02T00:48:40;97897.50;;;11.02;53.79
77881;BME280;67077;50.298;18.996;2023-05-02T00:51:08;97893.52;;;10.97;53.94
77881;BME280;67077;50.298;18.996;2023-05-02T00:53:39;97897.17;;;10.92;54.12
77881;BME280;67077;50.298;18.996;2023-05-02T00:56:07;97893.31;;;10.86;54.20
77881;BME280;67077;50.298;18.996;2023-05-02T00:58:39;97893.05;;;10.80;54.25
77881;BME280;67077;50.298;18.996;2023-05-02T01:09:22;97886.12;;;10.57;55.55
77881;BME280;67077;50.298;18.996;2023-05-02T01:12:01;97885.25;;;10.54;55.98
77881;BME280;67077;50.298;18.996;2023-05-02T01:14:35;97888.59;;;10.54;56.13
77881;BME280;67077;50.298;18.996;2023-05-02T01:17:08;97888.81;;;10.52;56.40
77881;BME280;67077;50.298;18.996;2023-05-02T01:19:39;97885.23;;;10.52;56.69
77881;BME280;67077;50.298;18.996;2023-05-02T01:22:09;97888.13;;;10.53;56.95
77881;BME280;67077;50.298;18.996;2023-05-02T01:24:40;97890.31;;;10.56;57.10
77881;BME280;67077;50.298;18.996;2023-05-02T01:27:12;97892.97;;;10.59;57.22
77881;BME280;67077;50.298;18.996;2023-05-02T01:29:42;97891.31;;;10.61;57.19
77881;BME280;67077;50.298;18.996;2023-05-02T01:32:12;97889.63;;;10.63;57.22
77881;BME280;67077;50.298;18.996;2023-05-02T01:34:42;97884.83;;;10.65;57.23
77881;BME280;67077;50.298;18.996;2023-05-02T01:37:11;97890.23;;;10.67;57.32
77881;BME280;67077;50.298;18.996;2023-05-02T01:39:39;97888.51;;;10.69;57.24
77881;BME280;67077;50.298;18.996;2023-05-02T01:42:09;97884.00;;;10.70;57.29
77881;BME280;67077;50.298;18.996;2023-05-02T01:44:38;97886.70;;;10.71;57.27
77881;BME280;67077;50.298;18.996;2023-05-02T01:47:07;97884.95;;;10.71;57.26
77881;BME280;67077;50.298;18.996;2023-05-02T01:49:36;97884.12;;;10.72;57.34
77881;BME280;67077;50.298;18.996;2023-05-02T01:52:07;97884.28;;;10.73;57.39
77881;BME280;67077;50.298;18.996;2023-05-02T01:54:38;97878.55;;;10.75;57.41
77881;BME280;67077;50.298;18.996;2023-05-02T01:57:07;97882.94;;;10.77;57.39
77881;BME280;67077;50.298;18.996;2023-05-02T01:59:35;97880.91;;;10.81;57.26
77881;BME280;67077;50.298;18.996;2023-05-02T02:02:03;97881.95;;;10.83;57.08
77881;BME280;67077;50.298;18.996;2023-05-02T02:04:32;97880.66;;;10.86;56.99
77881;BME280;67077;50.298;18.996;2023-05-02T02:07:02;97883.45;;;10.89;56.93
77881;BME280;67077;50.298;18.996;2023-05-02T02:09:33;97881.17;;;10.91;56.66
77881;BME280;67077;50.298;18.996;2023-05-02T02:14:32;97878.22;;;10.94;56.51
77881;BME280;67077;50.298;18.996;2023-05-02T02:17:01;97879.06;;;10.95;56.47
77881;BME280;67077;50.298;18.996;2023-05-02T02:19:32;97880.48;;;10.95;56.35
77881;BME280;67077;50.298;18.996;2023-05-02T02:22:01;97875.61;;;10.95;56.27
77881;BME280;67077;50.298;18.996;2023-05-02T02:24:29;97879.77;;;10.95;56.08
77881;BME280;67077;50.298;18.996;2023-05-02T02:26:58;97877.86;;;10.95;56.00
77881;BME280;67077;50.298;18.996;2023-05-02T02:29:25;97881.75;;;10.94;55.94
77881;BME280;67077;50.298;18.996;2023-05-02T02:31:53;97879.34;;;10.93;55.92
77881;BME280;67077;50.298;18.996;2023-05-02T02:34:21;97882.05;;;10.94;55.84
77881;BME280;67077;50.298;18.996;2023-05-02T02:36:59;97879.84;;;10.94;55.69
77881;BME280;67077;50.298;18.996;2023-05-02T02:39:51;97879.23;;;10.95;55.51
77881;BME280;67077;50.298;18.996;2023-05-02T02:42:32;97879.27;;;10.95;55.29
77881;BME280;67077;50.298;18.996;2023-05-02T02:47:55;97883.16;;;10.95;55.14
77881;BME280;67077;50.298;18.996;2023-05-02T02:56:06;97886.89;;;10.89;55.05
77881;BME280;67077;50.298;18.996;2023-05-02T02:58:38;97886.16;;;10.85;54.90
77881;BME280;67077;50.298;18.996;2023-05-02T03:01:09;97888.58;;;10.82;54.95
77881;BME280;67077;50.298;18.996;2023-05-02T03:03:38;97888.17;;;10.81;54.85
77881;BME280;67077;50.298;18.996;2023-05-02T03:06:08;97889.05;;;10.80;54.70
77881;BME280;67077;50.298;18.996;2023-05-02T03:08:39;97890.52;;;10.80;54.61
77881;BME280;67077;50.298;18.996;2023-05-02T03:11:07;97890.19;;;10.80;54.47
77881;BME280;67077;50.298;18.996;2023-05-02T03:13:35;97887.34;;;10.78;54.55
77881;BME280;67077;50.298;18.996;2023-05-02T03:18:51;97888.70;;;10.75;54.46
77881;BME280;67077;50.298;18.996;2023-05-02T03:21:18;97887.15;;;10.73;54.44
77881;BME280;67077;50.298;18.996;2023-05-02T03:23:47;97889.48;;;10.73;54.41
77881;BME280;67077;50.298;18.996;2023-05-02T03:26:15;97892.18;;;10.73;54.30
77881;BME280;67077;50.298;18.996;2023-05-02T03:28:43;97893.85;;;10.73;54.31
77881;BME280;67077;50.298;18.996;2023-05-02T03:31:14;97890.31;;;10.72;54.33
77881;BME280;67077;50.298;18.996;2023-05-02T03:33:42;97889.98;;;10.72;54.29
77881;BME280;67077;50.298;18.996;2023-05-02T03:36:10;97888.37;;;10.72;54.10
77881;BME280;67077;50.298;18.996;2023-05-02T03:38:38;97886.06;;;10.73;54.07
77881;BME280;67077;50.298;18.996;2023-05-02T03:41:06;97882.76;;;10.75;53.91
77881;BME280;67077;50.298;18.996;2023-05-02T03:43:34;97880.87;;;10.77;53.78
77881;BME280;67077;50.298;18.996;2023-05-02T03:46:06;97885.45;;;10.81;53.52
77881;BME280;67077;50.298;18.996;2023-05-02T03:48:38;97886.30;;;10.84;53.32
77881;BME280;67077;50.298;18.996;2023-05-02T03:51:06;97884.52;;;10.88;53.12
77881;BME280;67077;50.298;18.996;2023-05-02T03:53:36;97887.98;;;10.91;53.05
77881;BME280;67077;50.298;18.996;2023-05-02T03:56:05;97885.25;;;10.94;52.83
77881;BME280;67077;50.298;18.996;2023-05-02T03:58:34;97886.46;;;10.97;52.68
77881;BME280;67077;50.298;18.996;2023-05-02T04:01:02;97888.98;;;11.00;52.37
77881;BME280;67077;50.298;18.996;2023-05-02T04:03:30;97896.05;;;11.06;52.16
77881;BME280;67077;50.298;18.996;2023-05-02T04:05:58;97899.88;;;11.12;51.96
77881;BME280;67077;50.298;18.996;2023-05-02T04:08:26;97900.42;;;11.18;51.75
77881;BME280;67077;50.298;18.996;2023-05-02T04:10:54;97901.23;;;11.24;51.69
77881;BME280;67077;50.298;18.996;2023-05-02T04:13:22;97903.79;;;11.31;51.50
77881;BME280;67077;50.298;18.996;2023-05-02T04:15:49;97905.08;;;11.38;51.26
77881;BME280;67077;50.298;18.996;2023-05-02T04:18:17;97910.80;;;11.46;51.03
77881;BME280;67077;50.298;18.996;2023-05-02T04:20:45;97911.92;;;11.53;50.76
77881;BME280;67077;50.298;18.996;2023-05-02T04:23:12;97909.70;;;11.62;50.55
77881;BME280;67077;50.298;18.996;2023-05-02T04:25:41;97910.29;;;11.71;50.34
77881;BME280;67077;50.298;18.996;2023-05-02T04:28:08;97910.58;;;11.81;50.22
77881;BME280;67077;50.298;18.996;2023-05-02T04:30:36;97914.98;;;11.90;49.96
77881;BME280;67077;50.298;18.996;2023-05-02T04:33:04;97913.02;;;11.98;49.76
77881;BME280;67077;50.298;18.996;2023-05-02T04:35:31;97919.55;;;12.04;49.66
77881;BME280;67077;50.298;18.996;2023-05-02T04:37:59;97910.10;;;12.12;49.46
77881;BME280;67077;50.298;18.996;2023-05-02T04:40:27;97908.63;;;12.22;49.24
77881;BME280;67077;50.298;18.996;2023-05-02T04:42:55;97910.21;;;12.31;48.88
77881;BME280;67077;50.298;18.996;2023-05-02T04:45:23;97909.98;;;12.42;48.84
77881;BME280;67077;50.298;18.996;2023-05-02T04:47:51;97905.72;;;12.54;48.41
77881;BME280;67077;50.298;18.996;2023-05-02T04:50:19;97908.67;;;12.66;48.15
77881;BME280;67077;50.298;18.996;2023-05-02T04:52:47;97911.91;;;12.76;47.91
77881;BME280;67077;50.298;18.996;2023-05-02T04:55:15;97909.53;;;12.89;47.36
77881;BME280;67077;50.298;18.996;2023-05-02T04:57:43;97912.78;;;13.04;47.12
77881;BME280;67077;50.298;18.996;2023-05-02T05:00:12;97916.88;;;13.20;46.72
77881;BME280;67077;50.298;18.996;2023-05-02T05:02:40;97921.21;;;13.32;46.54
77881;BME280;67077;50.298;18.996;2023-05-02T05:05:08;97919.82;;;13.44;46.18
77881;BME280;67077;50.298;18.996;2023-05-02T05:07:36;97921.35;;;13.56;46.07
77881;BME280;67077;50.298;18.996;2023-05-02T05:10:04;97917.54;;;13.66;45.63
77881;BME280;67077;50.298;18.996;2023-05-02T05:12:32;97919.09;;;13.77;45.63
77881;BME280;67077;50.298;18.996;2023-05-02T05:15:00;97926.85;;;13.88;45.62
77881;BME280;67077;50.298;18.996;2023-05-02T05:17:28;97926.88;;;14.02;45.25
77881;BME280;67077;50.298;18.996;2023-05-02T05:19:56;97930.30;;;14.16;44.91
77881;BME280;67077;50.298;18.996;2023-05-02T05:22:24;97927.52;;;14.33;44.46
77881;BME280;67077;50.298;18.996;2023-05-02T05:24:52;97933.23;;;14.46;44.32
77881;BME280;67077;50.298;18.996;2023-05-02T05:27:20;97934.34;;;14.57;44.10
77881;BME280;67077;50.298;18.996;2023-05-02T05:29:48;97931.08;;;14.68;43.75
77881;BME280;67077;50.298;18.996;2023-05-02T05:32:16;97929.79;;;14.71;43.56
77881;BME280;67077;50.298;18.996;2023-05-02T05:34:44;97937.69;;;14.76;43.52
77881;BME280;67077;50.298;18.996;2023-05-02T05:37:11;97931.15;;;14.79;43.43
77881;BME280;67077;50.298;18.996;2023-05-02T05:39:39;97930.98;;;14.84;43.04
77881;BME280;67077;50.298;18.996;2023-05-02T05:42:07;97937.09;;;14.86;43.23
77881;BME280;67077;50.298;18.996;2023-05-02T05:44:36;97938.08;;;14.90;43.20
77881;BME280;67077;50.298;18.996;2023-05-02T05:47:04;97937.38;;;14.99;43.23
77881;BME280;67077;50.298;18.996;2023-05-02T05:49:32;97937.01;;;15.08;43.01
77881;BME280;67077;50.298;18.996;2023-05-02T05:52:02;97939.46;;;15.17;43.06
77881;BME280;67077;50.298;18.996;2023-05-02T05:54:30;97938.60;;;15.27;42.63
77881;BME280;67077;50.298;18.996;2023-05-02T05:56:58;97941.41;;;15.33;42.65
77881;BME280;67077;50.298;18.996;2023-05-02T05:59:26;97941.20;;;15.43;42.67
77881;BME280;67077;50.298;18.996;2023-05-02T06:01:54;97943.71;;;15.50;42.50
77881;BME280;67077;50.298;18.996;2023-05-02T06:04:22;97945.29;;;15.60;42.45
77881;BME280;67077;50.298;18.996;2023-05-02T06:06:50;97946.52;;;15.70;42.35
77881;BME280;67077;50.298;18.996;2023-05-02T06:09:20;97943.04;;;15.80;42.21
77881;BME280;67077;50.298;18.996;2023-05-02T06:11:47;97946.87;;;15.88;42.03
77881;BME280;67077;50.298;18.996;2023-05-02T06:14:15;97947.18;;;15.96;42.22
77881;BME280;67077;50.298;18.996;2023-05-02T06:16:43;97947.12;;;16.07;41.98
77881;BME280;67077;50.298;18.996;2023-05-02T06:19:11;97947.19;;;16.12;41.71
77881;BME280;67077;50.298;18.996;2023-05-02T06:21:39;97951.73;;;16.21;41.80
77881;BME280;67077;50.298;18.996;2023-05-02T06:24:07;97955.71;;;16.33;41.83
77881;BME280;67077;50.298;18.996;2023-05-02T06:26:34;97962.98;;;16.47;41.95
77881;BME280;67077;50.298;18.996;2023-05-02T06:29:03;97958.09;;;16.61;41.94
77881;BME280;67077;50.298;18.996;2023-05-02T06:31:30;97961.57;;;16.78;41.89
77881;BME280;67077;50.298;18.996;2023-05-02T06:33:58;97963.30;;;16.92;41.40
77881;BME280;67077;50.298;18.996;2023-05-02T06:36:26;97969.33;;;17.03;41.43
77881;BME280;67077;50.298;18.996;2023-05-02T06:38:54;97972.97;;;17.17;41.21
77881;BME280;67077;50.298;18.996;2023-05-02T06:41:22;97971.49;;;17.27;40.81
77881;BME280;67077;50.298;18.996;2023-05-02T06:43:50;97976.36;;;17.40;40.91
77881;BME280;67077;50.298;18.996;2023-05-02T06:46:18;97979.43;;;17.50;40.30
77881;BME280;67077;50.298;18.996;2023-05-02T06:48:47;97981.98;;;17.58;40.09
77881;BME280;67077;50.298;18.996;2023-05-02T06:51:15;97981.59;;;17.66;39.95
77881;BME280;67077;50.298;18.996;2023-05-02T06:53:44;97981.74;;;17.76;40.14
77881;BME280;67077;50.298;18.996;2023-05-02T06:56:12;97990.38;;;17.88;40.27
77881;BME280;67077;50.298;18.996;2023-05-02T06:58:39;97990.64;;;18.03;39.98
77881;BME280;67077;50.298;18.996;2023-05-02T07:01:08;97993.36;;;18.10;39.54
77881;BME280;67077;50.298;18.996;2023-05-02T07:03:36;97999.20;;;18.17;39.66
77881;BME280;67077;50.298;18.996;2023-05-02T07:06:03;97995.96;;;18.25;39.38
77881;BME280;67077;50.298;18.996;2023-05-02T07:08:31;97998.64;;;18.30;39.10
77881;BME280;67077;50.298;18.996;2023-05-02T07:10:59;98002.09;;;18.32;39.09
77881;BME280;67077;50.298;18.996;2023-05-02T07:13:27;98006.42;;;18.38;39.13
77881;BME280;67077;50.298;18.996;2023-05-02T07:15:55;98011.80;;;18.41;39.12
77881;BME280;67077;50.298;18.996;2023-05-02T07:18:24;98014.54;;;18.42;39.04
77881;BME280;67077;50.298;18.996;2023-05-02T07:20:52;98015.52;;;18.46;39.17
77881;BME280;67077;50.298;18.996;2023-05-02T07:23:20;98012.61;;;18.50;39.02
77881;BME280;67077;50.298;18.996;2023-05-02T07:25:48;98016.07;;;18.53;38.76
77881;BME280;67077;50.298;18.996;2023-05-02T07:28:16;98015.30;;;18.50;38.37
77881;BME280;67077;50.298;18.996;2023-05-02T07:30:45;98019.61;;;18.51;38.89
77881;BME280;67077;50.298;18.996;2023-05-02T07:33:13;98021.45;;;18.56;39.02
77881;BME280;67077;50.298;18.996;2023-05-02T07:35:41;98023.36;;;18.55;39.21
77881;BME280;67077;50.298;18.996;2023-05-02T07:38:10;98022.33;;;18.55;39.29
77881;BME280;67077;50.298;18.996;2023-05-02T07:40:39;98021.90;;;18.55;39.36
77881;BME280;67077;50.298;18.996;2023-05-02T07:43:07;98029.55;;;18.60;39.29
77881;BME280;67077;50.298;18.996;2023-05-02T07:45:36;98026.63;;;18.65;39.03
77881;BME280;67077;50.298;18.996;2023-05-02T07:48:04;98029.59;;;18.65;38.71
77881;BME280;67077;50.298;18.996;2023-05-02T07:50:32;98027.36;;;18.71;38.34
77881;BME280;67077;50.298;18.996;2023-05-02T07:53:00;98029.11;;;18.72;38.16
77881;BME280;67077;50.298;18.996;2023-05-02T07:55:28;98034.04;;;18.77;37.72
77881;BME280;67077;50.298;18.996;2023-05-02T07:58:07;98030.74;;;18.82;37.45
77881;BME280;67077;50.298;18.996;2023-05-02T08:00:35;98033.44;;;18.89;37.40
77881;BME280;67077;50.298;18.996;2023-05-02T08:03:03;98034.14;;;18.98;37.28
77881;BME280;67077;50.298;18.996;2023-05-02T08:05:31;98032.66;;;19.07;37.14
77881;BME280;67077;50.298;18.996;2023-05-02T08:08:00;98034.30;;;19.20;36.92
77881;BME280;67077;50.298;18.996;2023-05-02T08:10:29;98032.03;;;19.30;36.60
77881;BME280;67077;50.298;18.996;2023-05-02T08:12:57;98035.52;;;19.41;37.08
77881;BME280;67077;50.298;18.996;2023-05-02T08:15:25;98033.53;;;19.54;36.43
77881;BME280;67077;50.298;18.996;2023-05-02T08:17:53;98034.35;;;19.57;36.40
77881;BME280;67077;50.298;18.996;2023-05-02T08:20:21;98032.20;;;19.60;36.58
77881;BME280;67077;50.298;18.996;2023-05-02T08:23:06;98041.53;;;19.64;36.46
77881;BME280;67077;50.298;18.996;2023-05-02T08:25:35;98038.79;;;19.65;36.04
77881;BME280;67077;50.298;18.996;2023-05-02T08:28:03;98039.88;;;19.65;36.09
77881;BME280;67077;50.298;18.996;2023-05-02T08:30:38;98042.08;;;19.65;36.10
77881;BME280;67077;50.298;18.996;2023-05-02T08:33:08;98041.03;;;19.60;36.22
77881;BME280;67077;50.298;18.996;2023-05-02T08:35:38;98045.15;;;19.63;36.51
77881;BME280;67077;50.298;18.996;2023-05-02T08:38:07;98047.11;;;19.66;36.32
77881;BME280;67077;50.298;18.996;2023-05-02T08:40:38;98047.98;;;19.69;36.46
77881;BME280;67077;50.298;18.996;2023-05-02T08:43:15;98047.96;;;19.75;36.57
77881;BME280;67077;50.298;18.996;2023-05-02T08:45:46;98046.73;;;19.81;36.18
77881;BME280;67077;50.298;18.996;2023-05-02T08:48:55;98049.29;;;19.78;36.54
77881;BME280;67077;50.298;18.996;2023-05-02T08:51:29;98052.77;;;19.84;36.58
77881;BME280;67077;50.298;18.996;2023-05-02T08:53:59;98056.55;;;19.83;36.47
77881;BME280;67077;50.298;18.996;2023-05-02T08:56:59;98049.39;;;19.88;36.94
77881;BME280;67077;50.298;18.996;2023-05-02T08:59:38;98049.02;;;19.86;36.80
77881;BME280;67077;50.298;18.996;2023-05-02T09:02:18;98042.79;;;19.81;36.71
77881;BME280;67077;50.298;18.996;2023-05-02T09:05:05;98041.17;;;19.84;37.10
77881;BME280;67077;50.298;18.996;2023-05-02T09:07:45;98046.33;;;19.85;37.16
77881;BME280;67077;50.298;18.996;2023-05-02T09:10:38;98050.20;;;19.80;37.51
77881;BME280;67077;50.298;18.996;2023-05-02T09:13:28;98050.59;;;19.76;37.48
77881;BME280;67077;50.298;18.996;2023-05-02T09:18:35;98053.05;;;19.79;37.67
77881;BME280;67077;50.298;18.996;2023-05-02T09:21:58;98054.55;;;19.88;37.70
77881;BME280;67077;50.298;18.996;2023-05-02T09:24:27;98058.55;;;19.91;37.55
77881;BME280;67077;50.298;18.996;2023-05-02T09:26:58;98057.81;;;19.98;37.75
77881;BME280;67077;50.298;18.996;2023-05-02T09:29:45;98054.05;;;20.07;37.74
77881;BME280;67077;50.298;18.996;2023-05-02T09:32:43;98054.27;;;20.16;37.58
77881;BME280;67077;50.298;18.996;2023-05-02T09:35:11;98052.91;;;20.24;37.74
77881;BME280;67077;50.298;18.996;2023-05-02T09:37:42;98064.42;;;20.42;37.74
77881;BME280;67077;50.298;18.996;2023-05-02T09:40:11;98061.57;;;20.54;37.38
77881;BME280;67077;50.298;18.996;2023-05-02T09:42:39;98062.29;;;20.61;37.31
77881;BME280;67077;50.298;18.996;2023-05-02T09:45:16;98063.41;;;20.65;37.47
77881;BME280;67077;50.298;18.996;2023-05-02T09:48:10;98066.59;;;20.65;37.34
77881;BME280;67077;50.298;18.996;2023-05-02T09:53:56;98065.36;;;20.36;38.33
77881;BME280;67077;50.298;18.996;2023-05-02T09:56:25;98066.37;;;20.23;38.66
77881;BME280;67077;50.298;18.996;2023-05-02T09:59:19;98074.20;;;20.15;39.48
77881;BME280;67077;50.298;18.996;2023-05-02T10:04:25;98078.11;;;19.83;41.52
77881;BME280;67077;50.298;18.996;2023-05-02T10:07:04;98089.07;;;19.66;42.28
77881;BME280;67077;50.298;18.996;2023-05-02T10:09:34;98091.28;;;19.42;42.61
77881;BME280;67077;50.298;18.996;2023-05-02T10:12:06;98084.48;;;19.19;43.14
77881;BME280;67077;50.298;18.996;2023-05-02T10:14:40;98094.09;;;19.06;43.81
77881;BME280;67077;50.298;18.996;2023-05-02T10:17:29;98096.38;;;18.95;44.03
77881;BME280;67077;50.298;18.996;2023-05-02T10:20:18;98098.77;;;18.84;44.45
77881;BME280;67077;50.298;18.996;2023-05-02T10:23:17;98096.04;;;18.84;44.48
77881;BME280;67077;50.298;18.996;2023-05-02T10:25:46;98098.19;;;18.88;44.66
77881;BME280;67077;50.298;18.996;2023-05-02T10:28:16;98105.64;;;18.92;44.64
77881;BME280;67077;50.298;18.996;2023-05-02T10:30:43;98098.80;;;18.91;44.30
77881;BME280;67077;50.298;18.996;2023-05-02T10:33:13;98100.48;;;18.91;44.42
77881;BME280;67077;50.298;18.996;2023-05-02T10:35:44;98103.99;;;18.92;44.32
77881;BME280;67077;50.298;18.996;2023-05-02T10:38:16;98108.20;;;18.94;44.07
77881;BME280;67077;50.298;18.996;2023-05-02T10:40:46;98112.27;;;18.94;44.10
77881;BME280;67077;50.298;18.996;2023-05-02T10:43:23;98111.45;;;18.89;43.99
77881;BME280;67077;50.298;18.996;2023-05-02T10:45:52;98104.60;;;18.88;44.33
77881;BME280;67077;50.298;18.996;2023-05-02T10:48:32;98105.36;;;18.95;44.50
77881;BME280;67077;50.298;18.996;2023-05-02T10:51:01;98109.16;;;19.01;44.36
77881;BME280;67077;50.298;18.996;2023-05-02T10:53:32;98107.88;;;18.98;44.41
77881;BME280;67077;50.298;18.996;2023-05-02T10:56:10;98112.92;;;18.97;45.01
77881;BME280;67077;50.298;18.996;2023-05-02T10:58:43;98119.11;;;18.95;45.06
77881;BME280;67077;50.298;18.996;2023-05-02T11:06:25;98121.95;;;18.84;45.49
77881;BME280;67077;50.298;18.996;2023-05-02T11:11:43;98124.88;;;18.86;46.09
77881;BME280;67077;50.298;18.996;2023-05-02T11:19:26;98128.70;;;18.94;45.41
77881;BME280;67077;50.298;18.996;2023-05-02T11:24:49;98123.89;;;19.14;44.42
77881;BME280;67077;50.298;18.996;2023-05-02T11:30:05;98123.73;;;19.21;43.94
77881;BME280;67077;50.298;18.996;2023-05-02T11:35:32;98134.15;;;19.38;44.34
77881;BME280;67077;50.298;18.996;2023-05-02T11:38:20;98139.85;;;19.30;44.80
77881;BME280;67077;50.298;18.996;2023-05-02T11:40:56;98136.84;;;19.18;45.24
77881;BME280;67077;50.298;18.996;2023-05-02T11:43:26;98143.02;;;19.10;45.56
77881;BME280;67077;50.298;18.996;2023-05-02T11:45:55;98150.52;;;19.08;45.72
77881;BME280;67077;50.298;18.996;2023-05-02T11:48:26;98152.66;;;19.01;45.78
77881;BME280;67077;50.298;18.996;2023-05-02T11:50:55;98158.28;;;18.90;45.64
77881;BME280;67077;50.298;18.996;2023-05-02T11:53:38;98155.13;;;18.83;45.77
77881;BME280;67077;50.298;18.996;2023-05-02T11:56:07;98155.53;;;18.84;45.69
77881;BME280;67077;50.298;18.996;2023-05-02T11:58:35;98159.81;;;18.85;46.13
77881;BME280;67077;50.298;18.996;2023-05-02T12:01:14;98164.75;;;18.92;46.10
77881;BME280;67077;50.298;18.996;2023-05-02T12:03:46;98169.29;;;18.93;45.55
77881;BME280;67077;50.298;18.996;2023-05-02T12:06:53;98168.37;;;18.98;45.54
77881;BME280;67077;50.298;18.996;2023-05-02T12:09:22;98171.61;;;19.07;45.34
77881;BME280;67077;50.298;18.996;2023-05-02T12:11:52;98175.58;;;19.08;44.82
77881;BME280;67077;50.298;18.996;2023-05-02T12:14:30;98166.63;;;19.11;44.50
77881;BME280;67077;50.298;18.996;2023-05-02T12:17:04;98171.86;;;19.18;44.17
77881;BME280;67077;50.298;18.996;2023-05-02T12:19:32;98174.21;;;19.22;43.90
77881;BME280;67077;50.298;18.996;2023-05-02T12:22:01;98171.25;;;19.19;43.90
77881;BME280;67077;50.298;18.996;2023-05-02T12:24:29;98168.90;;;19.23;43.85
77881;BME280;67077;50.298;18.996;2023-05-02T12:29:56;98170.77;;;19.24;42.92
77881;BME280;67077;50.298;18.996;2023-05-02T12:32:27;98169.13;;;19.23;43.24
77881;BME280;67077;50.298;18.996;2023-05-02T12:35:01;98175.69;;;19.25;43.60
77881;BME280;67077;50.298;18.996;2023-05-02T12:37:35;98175.42;;;19.21;44.00
77881;BME280;67077;50.298;18.996;2023-05-02T12:43:14;98182.31;;;19.04;44.90
77881;BME280;67077;50.298;18.996;2023-05-02T12:46:09;98181.84;;;18.96;45.55
77881;BME280;67077;50.298;18.996;2023-05-02T12:48:40;98186.94;;;18.92;45.41
77881;BME280;67077;50.298;18.996;2023-05-02T12:51:51;98187.02;;;18.83;45.25
77881;BME280;67077;50.298;18.996;2023-05-02T12:54:25;98185.91;;;18.77;45.80
77881;BME280;67077;50.298;18.996;2023-05-02T12:57:00;98184.27;;;18.72;46.33
77881;BME280;67077;50.298;18.996;2023-05-02T13:00:02;98183.42;;;18.70;46.51
77881;BME280;67077;50.298;18.996;2023-05-02T13:02:34;98192.79;;;18.69;46.14
77881;BME280;67077;50.298;18.996;2023-05-02T13:05:12;98192.50;;;18.65;46.09
77881;BME280;67077;50.298;18.996;2023-05-02T13:08:10;98204.23;;;18.60;46.37
77881;BME280;67077;50.298;18.996;2023-05-02T13:11:16;98184.64;;;18.52;46.48
77881;BME280;67077;50.298;18.996;2023-05-02T13:13:52;98189.77;;;18.47;46.33
77881;BME280;67077;50.298;18.996;2023-05-02T13:16:49;98184.57;;;18.46;46.72
77881;BME280;67077;50.298;18.996;2023-05-02T13:29:16;98183.89;;;18.30;45.45
77881;BME280;67077;50.298;18.996;2023-05-02T13:31:48;98185.43;;;18.31;45.36
77881;BME280;67077;50.298;18.996;2023-05-02T13:34:32;98181.97;;;18.28;45.54
77881;BME280;67077;50.298;18.996;2023-05-02T13:37:02;98185.10;;;18.31;45.42
77881;BME280;67077;50.298;18.996;2023-05-02T13:39:42;98187.12;;;18.40;45.51
77881;BME280;67077;50.298;18.996;2023-05-02T13:42:10;98188.95;;;18.45;44.89
77881;BME280;67077;50.298;18.996;2023-05-02T13:44:38;98186.53;;;18.44;44.48
77881;BME280;67077;50.298;18.996;2023-05-02T13:47:07;98183.46;;;18.44;44.66
77881;BME280;67077;50.298;18.996;2023-05-02T13:49:35;98186.91;;;18.43;44.84
77881;BME280;67077;50.298;18.996;2023-05-02T13:52:03;98192.92;;;18.39;44.87
77881;BME280;67077;50.298;18.996;2023-05-02T13:54:31;98191.61;;;18.31;45.00
77881;BME280;67077;50.298;18.996;2023-05-02T13:57:00;98197.85;;;18.28;44.43
77881;BME280;67077;50.298;18.996;2023-05-02T13:59:30;98200.98;;;18.21;44.51
77881;BME280;67077;50.298;18.996;2023-05-02T14:01:59;98206.79;;;18.12;43.85
77881;BME280;67077;50.298;18.996;2023-05-02T14:04:27;98206.08;;;18.06;44.44
77881;BME280;67077;50.298;18.996;2023-05-02T14:06:56;98216.46;;;18.03;44.13
77881;BME280;67077;50.298;18.996;2023-05-02T14:09:24;98216.61;;;18.01;43.42
77881;BME280;67077;50.298;18.996;2023-05-02T14:11:52;98218.08;;;17.98;42.58
77881;BME280;67077;50.298;18.996;2023-05-02T14:14:22;98226.78;;;17.91;41.35
77881;BME280;67077;50.298;18.996;2023-05-02T14:16:51;98223.11;;;17.83;40.59
77881;BME280;67077;50.298;18.996;2023-05-02T14:19:22;98217.67;;;17.73;40.75
77881;BME280;67077;50.298;18.996;2023-05-02T14:21:51;98217.64;;;17.68;40.56